createdAt,value
2023-02-27T00:01:00.768Z,29.70
2023-02-27T00:03:29.522Z,30.00
2023-02-27T00:05:58.064Z,24.10
2023-02-27T00:08:26.365Z,25.00
2023-02-27T00:10:54.700Z,24.70
2023-02-27T00:13:23.108Z,26.10
2023-02-27T00:15:51.947Z,28.60
2023-02-27T00:18:20.212Z,25.10
2023-02-27T00:20:48.698Z,20.20
2023-02-27T00:23:16.980Z,21.90
2023-02-27T00:25:45.266Z,21.50
2023-02-27T00:28:13.526Z,17.00
2023-02-27T00:30:41.824Z,20.80
2023-02-27T00:33:10.042Z,22.40
2023-02-27T00:35:38.375Z,20.00
2023-02-27T00:38:06.530Z,28.00
2023-02-27T00:40:36.112Z,20.40
2023-02-27T00:43:04.886Z,19.10
2023-02-27T00:45:33.146Z,18.50
2023-02-27T00:48:02.349Z,19.50
2023-02-27T00:50:30.815Z,19.80
2023-02-27T00:52:59.115Z,17.00
2023-02-27T00:55:27.554Z,18.80
2023-02-27T00:57:55.984Z,14.70
2023-02-27T01:00:25.739Z,16.40
2023-02-27T01:02:55.797Z,17.40
2023-02-27T01:05:25.617Z,14.30
2023-02-27T01:07:55.233Z,14.50
2023-02-27T01:10:24.500Z,13.10
2023-02-27T01:12:53.914Z,14.90
2023-02-27T01:15:22.820Z,14.80
2023-02-27T01:17:52.091Z,14.20
2023-02-27T01:20:22.548Z,12.80
2023-02-27T01:22:52.180Z,12.60
2023-02-27T01:25:21.085Z,18.00
2023-02-27T01:27:50.249Z,15.90
2023-02-27T01:30:19.436Z,16.10
2023-02-27T01:32:48.924Z,15.30
2023-02-27T01:35:19.472Z,13.60
2023-02-27T01:37:50.425Z,13.80
2023-02-27T01:40:20.624Z,11.40
2023-02-27T01:42:50.239Z,17.50
2023-02-27T01:45:30.549Z,18.70
2023-02-27T01:48:08.808Z,14.80
2023-02-27T01:50:43.623Z,13.80
2023-02-27T01:53:13.179Z,14.80
2023-02-27T01:55:42.440Z,16.10
2023-02-27T01:58:13.509Z,18.80
2023-02-27T02:00:42.701Z,13.00
2023-02-27T02:03:25.462Z,13.90
2023-02-27T02:05:57.119Z,15.40
2023-02-27T02:08:29.204Z,14.00
2023-02-27T02:10:58.895Z,13.20
2023-02-27T02:13:28.560Z,18.70
2023-02-27T02:16:38.273Z,14.20
2023-02-27T02:19:41.229Z,15.20
2023-02-27T02:22:41.555Z,13.30
2023-02-27T02:25:40.708Z,10.90
2023-02-27T02:28:20.844Z,9.70
2023-02-27T02:31:20.692Z,11.80
2023-02-27T02:33:55.609Z,9.10
2023-02-27T02:37:04.416Z,10.50
2023-02-27T02:40:17.349Z,9.80
2023-02-27T02:43:02.170Z,9.20
2023-02-27T02:45:47.256Z,11.80
2023-02-27T02:48:29.381Z,12.10
2023-02-27T02:51:31.790Z,8.80
2023-02-27T02:54:07.767Z,10.10
2023-02-27T02:56:47.594Z,6.40
2023-02-27T02:59:49.993Z,6.00
2023-02-27T03:02:27.207Z,5.20
2023-02-27T03:05:12.710Z,7.70
2023-02-27T03:08:06.498Z,7.50
2023-02-27T03:10:46.981Z,6.70
2023-02-27T03:13:42.873Z,6.80
2023-02-27T03:16:35.177Z,5.60
2023-02-27T03:19:12.511Z,5.60
2023-02-27T03:21:51.154Z,8.10
2023-02-27T03:24:45.575Z,6.10
2023-02-27T03:27:19.130Z,5.10
2023-02-27T03:30:37.057Z,4.80
2023-02-27T03:33:30.949Z,7.00
2023-02-27T03:36:12.583Z,5.80
2023-02-27T03:38:52.610Z,6.90
2023-02-27T03:41:35.972Z,4.90
2023-02-27T03:44:52.888Z,7.80
2023-02-27T03:47:21.458Z,7.00
2023-02-27T03:49:51.225Z,6.40
2023-02-27T03:52:22.813Z,7.00
2023-02-27T03:54:59.972Z,9.50
2023-02-27T03:57:29.377Z,7.10
2023-02-27T03:59:58.841Z,4.70
2023-02-27T04:02:28.531Z,6.10
2023-02-27T04:04:57.218Z,6.40
2023-02-27T04:08:14.247Z,6.70
2023-02-27T04:11:25.080Z,6.00
2023-02-27T04:14:01.608Z,5.00
2023-02-27T04:16:46.079Z,5.50
2023-02-27T04:19:25.398Z,6.20
2023-02-27T04:22:14.049Z,7.00
2023-02-27T04:27:48.823Z,6.70
2023-02-27T04:30:29.151Z,7.40
2023-02-27T04:33:00.160Z,7.50
2023-02-27T04:35:35.022Z,8.70
2023-02-27T04:38:13.563Z,7.00
2023-02-27T04:41:08.449Z,5.80
2023-02-27T04:43:40.791Z,8.40
2023-02-27T04:46:12.706Z,8.60
2023-02-27T04:49:23.688Z,4.00
2023-02-27T04:52:17.083Z,4.30
2023-02-27T04:55:01.985Z,5.00
2023-02-27T04:57:39.266Z,4.80
2023-02-27T05:00:12.797Z,6.70
2023-02-27T05:02:48.050Z,8.20
2023-02-27T05:05:22.087Z,3.50
2023-02-27T05:07:57.371Z,2.90
2023-02-27T05:10:40.241Z,4.40
2023-02-27T05:13:19.758Z,7.60
2023-02-27T05:15:59.467Z,5.00
2023-02-27T05:18:29.501Z,3.30
2023-02-27T05:21:12.510Z,3.50
2023-02-27T05:23:56.327Z,4.70
2023-02-27T05:26:54.027Z,5.20
2023-02-27T05:29:40.604Z,3.40
2023-02-27T05:32:27.552Z,5.80
2023-02-27T05:35:14.900Z,5.60
2023-02-27T05:37:50.448Z,6.80
2023-02-27T05:40:26.201Z,5.00
2023-02-27T05:43:04.966Z,3.90
2023-02-27T05:45:39.264Z,4.30
2023-02-27T05:48:15.060Z,4.70
2023-02-27T05:50:45.825Z,6.20
2023-02-27T05:53:18.983Z,5.30
2023-02-27T05:55:52.239Z,5.00
2023-02-27T05:58:39.767Z,5.80
2023-02-27T06:01:11.532Z,4.40
2023-02-27T06:03:41.617Z,3.90
2023-02-27T06:06:16.979Z,3.80
2023-02-27T06:08:47.125Z,2.50
2023-02-27T06:11:16.131Z,5.00
2023-02-27T06:13:45.390Z,3.20
2023-02-27T06:16:16.220Z,6.70
2023-02-27T06:18:46.886Z,5.90
2023-02-27T06:21:16.230Z,3.90
2023-02-27T06:23:45.153Z,3.90
2023-02-27T06:26:14.474Z,3.70
2023-02-27T06:28:43.714Z,3.60
2023-02-27T06:31:12.065Z,5.00
2023-02-27T06:33:40.388Z,6.70
2023-02-27T06:36:08.601Z,4.40
2023-02-27T06:38:37.388Z,4.30
2023-02-27T06:41:05.908Z,5.50
2023-02-27T06:43:37.231Z,6.40
2023-02-27T06:46:05.945Z,6.40
2023-02-27T06:48:34.997Z,7.50
2023-02-27T06:51:04.348Z,8.30
2023-02-27T06:53:32.603Z,7.30
2023-02-27T06:56:01.171Z,6.80
2023-02-27T06:58:30.587Z,7.20
2023-02-27T07:01:01.003Z,7.00
2023-02-27T07:03:30.834Z,8.60
2023-02-27T07:06:00.597Z,8.30
2023-02-27T07:08:29.617Z,10.20
2023-02-27T07:10:58.875Z,8.30
2023-02-27T07:13:28.210Z,7.20
2023-02-27T07:15:57.551Z,9.50
2023-02-27T07:18:27.299Z,9.60
2023-02-27T07:20:56.845Z,6.60
2023-02-27T07:23:26.249Z,7.90
2023-02-27T07:25:54.779Z,6.80
2023-02-27T07:28:23.396Z,8.60
2023-02-27T07:30:55.611Z,7.20
2023-02-27T07:33:24.646Z,6.50
2023-02-27T07:35:54.197Z,7.70
2023-02-27T07:38:24.309Z,7.50
2023-02-27T07:40:56.649Z,8.10
2023-02-27T07:43:26.288Z,6.50
2023-02-27T07:45:54.885Z,6.00
2023-02-27T07:48:24.632Z,8.90
2023-02-27T07:50:54.049Z,6.00
2023-02-27T07:53:23.093Z,11.20
2023-02-27T07:55:51.838Z,6.60
2023-02-27T07:58:21.173Z,8.30
2023-02-27T08:00:49.733Z,5.30
2023-02-27T08:03:19.231Z,7.70
2023-02-27T08:05:48.992Z,7.90
2023-02-27T08:08:18.499Z,6.20
2023-02-27T08:10:48.025Z,6.30
2023-02-27T08:13:24.972Z,8.50
2023-02-27T08:16:13.789Z,8.30
2023-02-27T08:18:58.603Z,7.70
2023-02-27T08:21:32.114Z,9.20
2023-02-27T08:24:06.554Z,8.40
2023-02-27T08:26:40.136Z,8.90
2023-02-27T08:29:34.325Z,10.50
2023-02-27T08:32:05.888Z,9.10
2023-02-27T08:34:36.525Z,9.80
2023-02-27T08:37:08.398Z,9.10
2023-02-27T08:39:37.227Z,10.00
2023-02-27T08:42:07.514Z,9.00
2023-02-27T08:44:35.808Z,7.70
2023-02-27T08:47:05.042Z,8.30
2023-02-27T08:49:33.468Z,9.60
2023-02-27T08:52:04.561Z,11.60
2023-02-27T08:54:32.805Z,9.00
2023-02-27T08:57:00.893Z,11.60
2023-02-27T08:59:29.121Z,9.50
2023-02-27T09:01:57.635Z,11.70
2023-02-27T09:04:26.995Z,7.50
2023-02-27T09:06:55.760Z,10.00
2023-02-27T09:09:24.209Z,8.80
2023-02-27T09:11:52.599Z,8.70
2023-02-27T09:14:21.238Z,8.70
2023-02-27T09:16:50.120Z,8.10
2023-02-27T09:19:18.550Z,6.10
2023-02-27T09:21:46.884Z,6.50
2023-02-27T09:24:20.133Z,6.10
2023-02-27T09:26:49.871Z,10.10
2023-02-27T09:29:18.773Z,6.40
2023-02-27T09:31:48.265Z,9.60
2023-02-27T09:34:17.691Z,7.40
2023-02-27T09:36:46.931Z,5.90
2023-02-27T09:39:15.993Z,6.70
2023-02-27T09:42:07.126Z,23.20
2023-02-27T09:44:46.934Z,7.70
2023-02-27T09:47:35.859Z,8.40
2023-02-27T09:50:46.044Z,7.80
2023-02-27T09:53:23.893Z,5.70
2023-02-27T09:58:34.530Z,7.60
2023-02-27T10:01:14.464Z,5.90
2023-02-27T10:04:11.128Z,8.00
2023-02-27T10:07:09.039Z,7.60
2023-02-27T10:10:24.105Z,7.80
2023-02-27T10:13:27.389Z,9.10
2023-02-27T10:15:58.804Z,8.40
2023-02-27T10:18:35.560Z,10.80
2023-02-27T10:21:13.390Z,8.70
2023-02-27T10:23:53.336Z,10.80
2023-02-27T10:26:38.358Z,8.50
2023-02-27T10:29:30.217Z,7.20
2023-02-27T10:32:23.241Z,10.00
2023-02-27T10:35:43.360Z,9.30
2023-02-27T10:38:47.605Z,7.90
2023-02-27T10:41:22.544Z,9.30
2023-02-27T10:44:00.193Z,9.00
2023-02-27T10:46:31.416Z,12.20
2023-02-27T10:49:21.292Z,10.50
2023-02-27T10:52:12.096Z,12.50
2023-02-27T10:55:16.662Z,10.00
2023-02-27T10:57:46.755Z,9.80
2023-02-27T11:00:46.509Z,13.10
2023-02-27T11:03:29.194Z,13.50
2023-02-27T11:06:28.410Z,8.20
2023-02-27T11:09:22.380Z,12.30
2023-02-27T11:11:52.717Z,10.60
2023-02-27T11:14:33.325Z,5.50
2023-02-27T11:17:03.912Z,13.40
2023-02-27T11:19:42.605Z,10.90
2023-02-27T11:22:27.035Z,7.90
2023-02-27T11:25:24.748Z,13.70
2023-02-27T11:28:44.028Z,7.20
2023-02-27T11:31:23.649Z,7.60
2023-02-27T11:33:59.631Z,9.60
2023-02-27T11:37:04.025Z,5.40
2023-02-27T11:39:38.793Z,7.90
2023-02-27T11:42:17.651Z,9.30
2023-02-27T11:44:57.011Z,7.40
2023-02-27T11:47:30.968Z,7.00
2023-02-27T11:50:07.078Z,9.30
2023-02-27T11:52:35.862Z,10.30
2023-02-27T11:55:11.861Z,11.80
2023-02-27T11:57:47.904Z,12.70
2023-02-27T12:00:45.973Z,8.30
2023-02-27T12:03:33.361Z,10.40
2023-02-27T12:06:14.000Z,12.20
2023-02-27T12:08:54.816Z,13.00
2023-02-27T12:11:50.692Z,12.40
2023-02-27T12:14:47.056Z,12.60
2023-02-27T12:17:27.647Z,17.10
2023-02-27T12:20:07.914Z,15.80
2023-02-27T12:22:46.401Z,60.50
2023-02-27T12:25:39.930Z,13.90
2023-02-27T12:28:26.902Z,11.60
2023-02-27T12:31:24.078Z,16.80
2023-02-27T12:34:23.295Z,11.50
2023-02-27T12:37:19.042Z,12.60
2023-02-27T12:39:49.308Z,20.20
2023-02-27T12:42:57.695Z,10.80
2023-02-27T12:45:57.838Z,17.60
2023-02-27T12:49:11.742Z,12.70
2023-02-27T12:52:19.604Z,12.20
2023-02-27T12:55:15.334Z,13.40
2023-02-27T12:57:55.896Z,10.20
2023-02-27T13:00:33.662Z,15.50
2023-02-27T13:03:13.473Z,12.30
2023-02-27T13:05:48.319Z,8.10
2023-02-27T13:08:47.394Z,14.50
2023-02-27T13:11:38.695Z,14.30
2023-02-27T13:14:21.095Z,11.20
2023-02-27T13:17:00.383Z,14.80
2023-02-27T13:19:37.729Z,14.70
2023-02-27T13:22:39.768Z,17.40
2023-02-27T13:25:15.981Z,12.20
2023-02-27T13:27:49.932Z,14.60
2023-02-27T13:30:38.802Z,12.50
2023-02-27T13:33:52.390Z,15.00
2023-02-27T13:36:41.568Z,9.60
2023-02-27T13:39:51.309Z,13.60
2023-02-27T13:42:33.203Z,17.30
2023-02-27T13:45:30.004Z,7.30
2023-02-27T13:48:03.850Z,17.10
2023-02-27T13:50:44.618Z,15.60
2023-02-27T13:53:19.303Z,17.60
2023-02-27T13:55:50.993Z,18.40
2023-02-27T13:58:24.816Z,13.50
2023-02-27T14:00:57.370Z,16.00
2023-02-27T14:03:49.288Z,15.20
2023-02-27T14:06:18.586Z,14.90
2023-02-27T14:08:50.106Z,15.40
2023-02-27T14:11:39.794Z,18.30
2023-02-27T14:14:29.698Z,14.70
2023-02-27T14:16:59.445Z,15.10
2023-02-27T14:19:29.342Z,15.30
2023-02-27T14:22:31.575Z,11.40
2023-02-27T14:25:06.678Z,14.50
2023-02-27T14:27:44.484Z,13.20
2023-02-27T14:30:24.868Z,10.30
2023-02-27T14:33:03.301Z,11.90
2023-02-27T14:35:33.038Z,10.40
2023-02-27T14:38:08.414Z,10.80
2023-02-27T14:41:00.518Z,14.30
2023-02-27T14:43:55.240Z,13.30
2023-02-27T14:46:28.643Z,11.20
2023-02-27T14:49:17.956Z,10.80
2023-02-27T14:51:47.887Z,10.50
2023-02-27T14:54:18.550Z,13.50
2023-02-27T14:57:02.023Z,8.60
2023-02-27T14:59:33.523Z,10.90
2023-02-27T15:02:04.573Z,9.80
2023-02-27T15:04:33.863Z,13.70
2023-02-27T15:07:05.564Z,11.20
2023-02-27T15:09:50.039Z,14.70
2023-02-27T15:12:21.466Z,14.80
2023-02-27T15:15:07.950Z,13.30
2023-02-27T15:17:44.750Z,13.20
2023-02-27T15:20:35.713Z,14.30
2023-02-27T15:23:26.597Z,16.10
2023-02-27T15:25:58.399Z,12.20
2023-02-27T15:28:35.769Z,11.10
2023-02-27T15:31:05.944Z,15.50
2023-02-27T15:33:40.938Z,17.70
2023-02-27T15:36:20.032Z,19.60
2023-02-27T15:39:17.253Z,15.80
2023-02-27T15:41:52.398Z,17.70
2023-02-27T15:44:26.818Z,12.40
2023-02-27T15:46:57.310Z,15.80
2023-02-27T15:49:26.600Z,13.30
2023-02-27T15:52:22.118Z,16.20
2023-02-27T15:55:01.293Z,15.80
2023-02-27T15:57:42.090Z,10.80
2023-02-27T16:00:19.592Z,14.20
2023-02-27T16:02:52.896Z,19.60
2023-02-27T16:05:42.430Z,15.90
2023-02-27T16:08:35.010Z,14.40
2023-02-27T16:11:06.319Z,10.90
2023-02-27T16:13:40.626Z,18.60
2023-02-27T16:16:36.932Z,13.80
2023-02-27T16:19:27.300Z,17.10
2023-02-27T16:22:16.838Z,16.10
2023-02-27T16:24:51.251Z,16.80
2023-02-27T16:27:29.612Z,17.40
2023-02-27T16:30:05.192Z,17.20
2023-02-27T16:32:42.356Z,17.00
2023-02-27T16:35:20.578Z,19.50
2023-02-27T16:40:23.543Z,17.70
2023-02-27T16:42:52.951Z,19.60
2023-02-27T16:45:27.533Z,19.70
2023-02-27T16:47:58.915Z,22.50
2023-02-27T16:50:39.429Z,19.70
2023-02-27T16:53:10.045Z,18.20
2023-02-27T16:55:58.263Z,16.80
2023-02-27T16:58:30.050Z,15.70
2023-02-27T17:01:04.299Z,16.80
2023-02-27T17:03:36.885Z,17.40
2023-02-27T17:06:17.293Z,17.20
2023-02-27T17:08:47.251Z,15.10
2023-02-27T17:11:16.305Z,17.60
2023-02-27T17:13:44.641Z,16.40
2023-02-27T17:16:14.489Z,16.50
2023-02-27T17:18:43.215Z,19.30
2023-02-27T17:21:12.427Z,14.90
2023-02-27T17:23:40.720Z,19.30
2023-02-27T17:26:08.908Z,19.70
2023-02-27T17:28:37.068Z,19.70
2023-02-27T17:31:09.798Z,20.20
2023-02-27T17:33:38.217Z,20.10
2023-02-27T17:36:08.304Z,26.10
2023-02-27T17:38:37.243Z,22.00
2023-02-27T17:41:10.848Z,28.40
2023-02-27T17:43:40.058Z,22.90
2023-02-27T17:46:09.507Z,25.00
2023-02-27T17:48:39.326Z,21.50
2023-02-27T17:51:12.183Z,15.40
2023-02-27T17:53:40.569Z,21.40
2023-02-27T17:56:09.797Z,27.80
2023-02-27T17:58:38.115Z,17.00
2023-02-27T18:01:13.413Z,21.10
2023-02-27T18:03:44.159Z,27.70
2023-02-27T18:06:13.174Z,22.40
2023-02-27T18:08:41.418Z,21.30
2023-02-27T18:11:14.322Z,22.40
2023-02-27T18:13:43.034Z,22.60
2023-02-27T18:16:11.693Z,22.90
2023-02-27T18:18:41.578Z,17.30
2023-02-27T18:21:15.920Z,19.40
2023-02-27T18:23:44.554Z,20.30
2023-02-27T18:26:28.958Z,24.90
2023-02-27T18:29:00.577Z,20.50
2023-02-27T18:31:34.266Z,22.20
2023-02-27T18:34:02.847Z,21.60
2023-02-27T18:36:32.354Z,18.20
2023-02-27T18:39:01.121Z,23.10
2023-02-27T18:41:29.454Z,25.00
2023-02-27T18:44:00.910Z,20.10
2023-02-27T18:46:29.445Z,24.10
2023-02-27T18:48:58.306Z,24.70
2023-02-27T18:51:28.077Z,19.80
2023-02-27T18:53:56.375Z,22.00
2023-02-27T18:56:25.911Z,22.80
2023-02-27T18:58:57.272Z,22.80
2023-02-27T19:01:28.011Z,22.40
2023-02-27T19:04:03.621Z,23.90
2023-02-27T19:06:42.242Z,23.70
2023-02-27T19:09:16.199Z,22.00
2023-02-27T19:11:48.098Z,19.20
2023-02-27T19:14:16.542Z,23.40
2023-02-27T19:16:46.152Z,17.90
2023-02-27T19:19:14.592Z,20.70
2023-02-27T19:21:43.158Z,20.00
2023-02-27T19:24:12.572Z,21.60
2023-02-27T19:26:41.415Z,25.30
2023-02-27T19:29:09.815Z,23.00
2023-02-27T19:31:38.266Z,26.20
2023-02-27T19:34:06.834Z,22.10
2023-02-27T19:36:35.184Z,21.90
2023-02-27T19:39:04.678Z,27.10
2023-02-27T19:41:33.620Z,23.70
2023-02-27T19:44:02.214Z,20.90
2023-02-27T19:46:34.098Z,25.90
2023-02-27T19:49:05.290Z,21.60
2023-02-27T19:51:34.191Z,24.00
2023-02-27T19:54:02.408Z,21.10
2023-02-27T19:56:32.913Z,20.90
2023-02-27T19:59:10.398Z,24.60
2023-02-27T20:01:41.595Z,24.00
2023-02-27T20:04:11.388Z,27.00
2023-02-27T20:06:57.743Z,20.50
2023-02-27T20:09:27.500Z,25.40
2023-02-27T20:11:59.164Z,28.80
2023-02-27T20:14:30.263Z,23.00
2023-02-27T20:16:58.834Z,18.50
2023-02-27T20:19:27.313Z,21.80
2023-02-27T20:21:56.659Z,21.50
2023-02-27T20:24:25.521Z,27.10
2023-02-27T20:26:54.286Z,23.70
2023-02-27T20:29:24.352Z,22.30
2023-02-27T20:31:53.987Z,23.30
2023-02-27T20:34:26.376Z,19.20
2023-02-27T20:36:55.901Z,19.10
2023-02-27T20:39:24.597Z,19.50
2023-02-27T20:41:53.440Z,19.00
2023-02-27T20:44:21.799Z,19.40
2023-02-27T20:46:50.724Z,21.10
2023-02-27T20:49:22.861Z,20.90
2023-02-27T20:51:54.140Z,22.20
2023-02-27T20:54:23.108Z,18.40
2023-02-27T20:56:52.806Z,21.40
2023-02-27T20:59:24.720Z,20.50
2023-02-27T21:01:53.956Z,26.30
2023-02-27T21:04:25.263Z,17.70
2023-02-27T21:06:54.762Z,17.50
2023-02-27T21:09:22.974Z,19.90
2023-02-27T21:11:51.331Z,16.60
2023-02-27T21:14:21.013Z,19.50
2023-02-27T21:16:49.225Z,18.10
2023-02-27T21:19:20.871Z,18.60
2023-02-27T21:21:49.172Z,18.10
2023-02-27T21:24:18.081Z,16.90
2023-02-27T21:26:46.812Z,17.40
2023-02-27T21:29:21.119Z,17.50
2023-02-27T21:31:50.897Z,16.80
2023-02-27T21:34:24.957Z,18.10
2023-02-27T21:36:54.824Z,25.20
2023-02-27T21:39:28.322Z,22.20
2023-02-27T21:41:59.561Z,19.50
2023-02-27T21:44:31.598Z,17.60
2023-02-27T21:47:09.893Z,20.00
2023-02-27T21:49:39.417Z,17.40
2023-02-27T21:52:08.746Z,21.40
2023-02-27T21:54:38.613Z,19.90
2023-02-27T21:57:08.487Z,18.70
2023-02-27T21:59:38.084Z,19.50
2023-02-27T22:02:07.065Z,21.10
2023-02-27T22:04:36.383Z,18.00
2023-02-27T22:07:04.657Z,24.00
2023-02-27T22:09:33.208Z,25.80
2023-02-27T22:12:01.507Z,26.70
2023-02-27T22:14:30.151Z,25.60
2023-02-27T22:16:58.855Z,19.20
2023-02-27T22:19:27.115Z,22.30
2023-02-27T22:21:56.128Z,25.60
2023-02-27T22:24:26.021Z,20.50
2023-02-27T22:26:55.252Z,23.70
2023-02-27T22:29:24.139Z,29.30
2023-02-27T22:31:52.793Z,24.00
2023-02-27T22:34:21.830Z,25.30
2023-02-27T22:36:52.741Z,22.60
2023-02-27T22:39:21.937Z,24.40
2023-02-27T22:41:55.936Z,17.80
2023-02-27T22:44:48.471Z,25.40
2023-02-27T22:47:43.220Z,25.30
2023-02-27T22:50:19.250Z,24.70
2023-02-27T22:53:08.062Z,29.30
2023-02-27T22:55:38.674Z,26.30
2023-02-27T22:58:16.891Z,19.20
2023-02-27T23:00:49.116Z,20.40
2023-02-27T23:03:27.306Z,23.30
2023-02-27T23:08:50.441Z,18.60
2023-02-27T23:11:21.975Z,19.90
2023-02-27T23:13:59.489Z,26.70
2023-02-27T23:16:30.215Z,19.00
2023-02-27T23:19:00.345Z,19.80
2023-02-27T23:21:37.027Z,22.30
2023-02-27T23:24:10.226Z,24.00
2023-02-27T23:26:42.728Z,18.70
2023-02-27T23:29:12.786Z,23.70
2023-02-27T23:31:45.241Z,21.30
2023-02-27T23:34:16.521Z,22.60
2023-02-27T23:36:45.824Z,21.50
2023-02-27T23:39:14.253Z,22.60
2023-02-27T23:41:42.692Z,23.00
2023-02-27T23:44:29.013Z,27.30
2023-02-27T23:46:57.579Z,26.30
2023-02-27T23:49:25.891Z,27.00
2023-02-27T23:51:54.049Z,26.00
2023-02-27T23:54:22.340Z,28.10
2023-02-27T23:56:50.747Z,25.70
2023-02-27T23:59:19.024Z,28.20
